sensor_id;sensor_type;location;lat;lon;timestamp;pressure;altitude;pressure_sealevel;temperature;humidity
48718;BME280;34521;33.042;-96.586;2023-04-29T00:01:06;99133.38;;;21.63;35.78
48718;BME280;34521;33.042;-96.586;2023-04-29T00:03:32;99126.88;;;20.63;37.08
48718;BME280;34521;33.042;-96.586;2023-04-29T00:05:56;99124.54;;;20.16;38.14
48718;BME280;34521;33.042;-96.586;2023-04-29T00:08:21;99123.53;;;20.34;38.33
48718;BME280;34521;33.042;-96.586;2023-04-29T00:10:46;99132.24;;;20.65;37.57
48718;BME280;34521;33.042;-96.586;2023-04-29T00:13:12;99134.35;;;21.41;35.94
48718;BME280;34521;33.042;-96.586;2023-04-29T00:15:36;99137.71;;;20.76;36.70
48718;BME280;34521;33.042;-96.586;2023-04-29T00:18:01;99137.72;;;21.28;36.01
48718;BME280;34521;33.042;-96.586;2023-04-29T00:20:27;99136.10;;;21.05;36.29
48718;BME280;34521;33.042;-96.586;2023-04-29T00:22:52;99134.22;;;20.99;36.41
48718;BME280;34521;33.042;-96.586;2023-04-29T00:25:17;99136.91;;;21.17;36.12
48718;BME280;34521;33.042;-96.586;2023-04-29T00:27:42;99133.71;;;21.33;35.78
48718;BME280;34521;33.042;-96.586;2023-04-29T00:30:08;99144.63;;;20.88;36.14
48718;BME280;34521;33.042;-96.586;2023-04-29T00:32:32;99141.95;;;20.82;36.36
48718;BME280;34521;33.042;-96.586;2023-04-29T00:34:57;99136.61;;;20.97;35.78
48718;BME280;34521;33.042;-96.586;2023-04-29T00:37:22;99127.28;;;21.13;36.16
48718;BME280;34521;33.042;-96.586;2023-04-29T00:39:47;99115.17;;;21.55;35.66
48718;BME280;34521;33.042;-96.586;2023-04-29T00:42:12;99114.29;;;21.55;35.46
48718;BME280;34521;33.042;-96.586;2023-04-29T00:44:37;99108.92;;;21.55;35.60
48718;BME280;34521;33.042;-96.586;2023-04-29T00:47:03;99111.45;;;21.47;35.66
48718;BME280;34521;33.042;-96.586;2023-04-29T00:49:28;99112.52;;;20.97;35.95
48718;BME280;34521;33.042;-96.586;2023-04-29T00:51:58;99131.37;;;21.47;35.68
48718;BME280;34521;33.042;-96.586;2023-04-29T00:54:18;99169.35;;;21.14;35.65
48718;BME280;34521;33.042;-96.586;2023-04-29T00:56:45;99194.79;;;21.17;35.82
48718;BME280;34521;33.042;-96.586;2023-04-29T00:59:08;99194.50;;;20.00;37.60
48718;BME280;34521;33.042;-96.586;2023-04-29T01:01:33;99189.93;;;19.59;38.44
48718;BME280;34521;33.042;-96.586;2023-04-29T01:03:58;99201.71;;;20.40;37.71
48718;BME280;34521;33.042;-96.586;2023-04-29T01:06:32;99205.61;;;19.92;38.13
48718;BME280;34521;33.042;-96.586;2023-04-29T01:08:56;99214.69;;;19.89;38.75
48718;BME280;34521;33.042;-96.586;2023-04-29T01:11:16;99211.60;;;21.02;36.66
48718;BME280;34521;33.042;-96.586;2023-04-29T01:13:45;99214.61;;;20.56;36.92
48718;BME280;34521;33.042;-96.586;2023-04-29T01:16:06;99226.89;;;20.65;36.76
48718;BME280;34521;33.042;-96.586;2023-04-29T01:18:32;99226.11;;;20.75;36.65
48718;BME280;34521;33.042;-96.586;2023-04-29T01:20:53;99229.99;;;20.86;36.49
48718;BME280;34521;33.042;-96.586;2023-04-29T01:23:18;99238.01;;;20.88;36.39
48718;BME280;34521;33.042;-96.586;2023-04-29T01:25:43;99242.56;;;20.58;36.55
48718;BME280;34521;33.042;-96.586;2023-04-29T01:28:18;99246.91;;;20.87;36.04
48718;BME280;34521;33.042;-96.586;2023-04-29T01:30:41;99266.10;;;21.01;35.82
48718;BME280;34521;33.042;-96.586;2023-04-29T01:33:02;99277.73;;;20.95;35.98
48718;BME280;34521;33.042;-96.586;2023-04-29T01:35:35;99283.08;;;21.24;35.89
48718;BME280;34521;33.042;-96.586;2023-04-29T01:37:55;99287.99;;;20.55;36.07
48718;BME280;34521;33.042;-96.586;2023-04-29T01:40:18;99299.06;;;20.61;36.29
48718;BME280;34521;33.042;-96.586;2023-04-29T01:42:45;99305.08;;;20.70;36.14
48718;BME280;34521;33.042;-96.586;2023-04-29T01:45:14;99306.88;;;20.89;35.88
48718;BME280;34521;33.042;-96.586;2023-04-29T01:47:29;99303.48;;;20.66;35.80
48718;BME280;34521;33.042;-96.586;2023-04-29T01:49:54;99303.86;;;20.86;35.83
48718;BME280;34521;33.042;-96.586;2023-04-29T01:52:19;99312.77;;;20.76;35.97
48718;BME280;34521;33.042;-96.586;2023-04-29T01:54:44;99319.67;;;21.18;35.73
48718;BME280;34521;33.042;-96.586;2023-04-29T01:57:09;99326.86;;;20.73;35.93
48718;BME280;34521;33.042;-96.586;2023-04-29T01:59:34;99334.16;;;19.96;37.45
48718;BME280;34521;33.042;-96.586;2023-04-29T02:01:59;99335.55;;;20.28;37.15
48718;BME280;34521;33.042;-96.586;2023-04-29T02:04:24;99339.67;;;19.80;38.49
48718;BME280;34521;33.042;-96.586;2023-04-29T02:06:49;99334.10;;;19.59;38.83
48718;BME280;34521;33.042;-96.586;2023-04-29T02:09:14;99334.23;;;19.73;38.71
48718;BME280;34521;33.042;-96.586;2023-04-29T02:11:39;99329.19;;;20.63;36.49
48718;BME280;34521;33.042;-96.586;2023-04-29T02:14:04;99331.31;;;20.55;36.57
48718;BME280;34521;33.042;-96.586;2023-04-29T02:16:30;99315.99;;;20.81;36.23
48718;BME280;34521;33.042;-96.586;2023-04-29T02:18:55;99313.99;;;20.79;36.22
48718;BME280;34521;33.042;-96.586;2023-04-29T02:21:20;99322.88;;;20.91;36.02
48718;BME280;34521;33.042;-96.586;2023-04-29T02:23:45;99329.77;;;20.74;35.87
48718;BME280;34521;33.042;-96.586;2023-04-29T02:26:10;99334.47;;;20.88;35.70
48718;BME280;34521;33.042;-96.586;2023-04-29T02:28:35;99323.87;;;20.93;35.24
48718;BME280;34521;33.042;-96.586;2023-04-29T02:31:00;99320.22;;;21.14;35.54
48718;BME280;34521;33.042;-96.586;2023-04-29T02:33:25;99320.33;;;20.65;35.51
48718;BME280;34521;33.042;-96.586;2023-04-29T02:35:50;99336.79;;;20.56;35.64
48718;BME280;34521;33.042;-96.586;2023-04-29T02:38:15;99345.38;;;20.68;35.46
48718;BME280;34521;33.042;-96.586;2023-04-29T02:40:42;99358.74;;;20.94;35.68
48718;BME280;34521;33.042;-96.586;2023-04-29T02:43:05;99365.78;;;21.04;35.55
48718;BME280;34521;33.042;-96.586;2023-04-29T02:45:30;99370.39;;;20.73;35.67
48718;BME280;34521;33.042;-96.586;2023-04-29T02:47:55;99370.50;;;21.03;35.43
48718;BME280;34521;33.042;-96.586;2023-04-29T02:50:20;99380.67;;;21.02;35.50
48718;BME280;34521;33.042;-96.586;2023-04-29T02:52:45;99396.07;;;21.20;35.24
48718;BME280;34521;33.042;-96.586;2023-04-29T02:55:10;99413.33;;;20.83;35.33
48718;BME280;34521;33.042;-96.586;2023-04-29T02:57:36;99419.61;;;19.46;37.62
48718;BME280;34521;33.042;-96.586;2023-04-29T03:00:01;99418.72;;;19.18;38.43
48718;BME280;34521;33.042;-96.586;2023-04-29T03:02:26;99421.05;;;19.55;38.46
48718;BME280;34521;33.042;-96.586;2023-04-29T03:04:51;99425.05;;;19.46;38.55
48718;BME280;34521;33.042;-96.586;2023-04-29T03:07:16;99421.02;;;19.29;38.90
48718;BME280;34521;33.042;-96.586;2023-04-29T03:09:41;99418.90;;;20.47;37.09
48718;BME280;34521;33.042;-96.586;2023-04-29T03:12:06;99413.33;;;20.31;36.46
48718;BME280;34521;33.042;-96.586;2023-04-29T03:14:31;99404.11;;;20.84;35.76
48718;BME280;34521;33.042;-96.586;2023-04-29T03:16:56;99398.18;;;21.03;35.46
48718;BME280;34521;33.042;-96.586;2023-04-29T03:19:22;99406.66;;;20.70;35.85
48718;BME280;34521;33.042;-96.586;2023-04-29T03:21:46;99406.46;;;20.89;35.56
48718;BME280;34521;33.042;-96.586;2023-04-29T03:24:11;99396.69;;;21.22;35.08
48718;BME280;34521;33.042;-96.586;2023-04-29T03:26:36;99398.93;;;20.96;35.35
48718;BME280;34521;33.042;-96.586;2023-04-29T03:29:01;99408.46;;;20.65;35.41
48718;BME280;34521;33.042;-96.586;2023-04-29T03:31:26;99418.35;;;20.65;35.38
48718;BME280;34521;33.042;-96.586;2023-04-29T03:33:51;99419.65;;;20.92;35.32
48718;BME280;34521;33.042;-96.586;2023-04-29T03:36:16;99432.31;;;20.62;35.33
48718;BME280;34521;33.042;-96.586;2023-04-29T03:38:41;99439.49;;;20.82;35.05
48718;BME280;34521;33.042;-96.586;2023-04-29T03:41:06;99449.11;;;20.69;35.18
48718;BME280;34521;33.042;-96.586;2023-04-29T03:43:36;99456.01;;;20.67;35.19
48718;BME280;34521;33.042;-96.586;2023-04-29T03:45:57;99451.56;;;20.86;34.93
48718;BME280;34521;33.042;-96.586;2023-04-29T03:48:22;99445.04;;;20.72;35.06
48718;BME280;34521;33.042;-96.586;2023-04-29T03:50:47;99439.36;;;20.74;34.99
48718;BME280;34521;33.042;-96.586;2023-04-29T03:53:12;99434.15;;;20.77;34.90
48718;BME280;34521;33.042;-96.586;2023-04-29T03:55:37;99428.86;;;20.70;34.91
48718;BME280;34521;33.042;-96.586;2023-04-29T03:58:03;99425.92;;;19.04;38.02
48718;BME280;34521;33.042;-96.586;2023-04-29T04:00:27;99425.72;;;18.72;38.66
48718;BME280;34521;33.042;-96.586;2023-04-29T04:02:52;99428.38;;;19.42;38.53
48718;BME280;34521;33.042;-96.586;2023-04-29T04:05:17;99441.82;;;19.29;39.08
48718;BME280;34521;33.042;-96.586;2023-04-29T04:07:42;99440.34;;;19.78;38.02
48718;BME280;34521;33.042;-96.586;2023-04-29T04:10:07;99439.55;;;20.67;36.23
48718;BME280;34521;33.042;-96.586;2023-04-29T04:12:32;99439.88;;;20.35;35.95
48718;BME280;34521;33.042;-96.586;2023-04-29T04:14:57;99441.33;;;20.53;35.68
48718;BME280;34521;33.042;-96.586;2023-04-29T04:17:22;99440.43;;;20.79;35.32
48718;BME280;34521;33.042;-96.586;2023-04-29T04:19:47;99436.57;;;20.38;35.81
48718;BME280;34521;33.042;-96.586;2023-04-29T04:22:12;99432.26;;;20.31;35.50
48718;BME280;34521;33.042;-96.586;2023-04-29T04:24:37;99431.42;;;20.71;35.24
48718;BME280;34521;33.042;-96.586;2023-04-29T04:27:02;99425.66;;;20.58;35.04
48718;BME280;34521;33.042;-96.586;2023-04-29T04:29:27;99421.67;;;20.77;35.06
48718;BME280;34521;33.042;-96.586;2023-04-29T04:31:52;99422.85;;;20.56;35.33
48718;BME280;34521;33.042;-96.586;2023-04-29T04:34:17;99409.23;;;20.63;34.87
48718;BME280;34521;33.042;-96.586;2023-04-29T04:36:43;99400.06;;;20.72;35.02
48718;BME280;34521;33.042;-96.586;2023-04-29T04:39:08;99387.58;;;20.80;34.91
48718;BME280;34521;33.042;-96.586;2023-04-29T04:41:33;99373.55;;;20.73;34.99
48718;BME280;34521;33.042;-96.586;2023-04-29T04:43:58;99365.62;;;20.24;35.26
48718;BME280;34521;33.042;-96.586;2023-04-29T04:46:23;99366.39;;;20.59;34.78
48718;BME280;34521;33.042;-96.586;2023-04-29T04:48:48;99347.61;;;20.46;35.20
48718;BME280;34521;33.042;-96.586;2023-04-29T04:51:13;99350.56;;;20.56;34.72
48718;BME280;34521;33.042;-96.586;2023-04-29T04:53:39;99356.36;;;20.69;34.87
48718;BME280;34521;33.042;-96.586;2023-04-29T04:56:03;99360.98;;;19.96;36.31
48718;BME280;34521;33.042;-96.586;2023-04-29T04:58:28;99366.77;;;18.57;38.62
48718;BME280;34521;33.042;-96.586;2023-04-29T05:00:53;99386.34;;;18.76;38.80
48718;BME280;34521;33.042;-96.586;2023-04-29T05:03:18;99388.28;;;18.78;38.78
48718;BME280;34521;33.042;-96.586;2023-04-29T05:05:43;99399.66;;;18.59;39.07
48718;BME280;34521;33.042;-96.586;2023-04-29T05:08:08;99407.75;;;20.14;36.14
48718;BME280;34521;33.042;-96.586;2023-04-29T05:10:36;99412.54;;;20.19;35.61
48718;BME280;34521;33.042;-96.586;2023-04-29T05:12:58;99419.88;;;20.45;35.65
48718;BME280;34521;33.042;-96.586;2023-04-29T05:15:23;99420.36;;;20.27;35.50
48718;BME280;34521;33.042;-96.586;2023-04-29T05:17:49;99415.06;;;20.56;35.10
48718;BME280;34521;33.042;-96.586;2023-04-29T05:20:14;99429.88;;;20.35;35.37
48718;BME280;34521;33.042;-96.586;2023-04-29T05:22:38;99432.19;;;20.53;35.13
48718;BME280;34521;33.042;-96.586;2023-04-29T05:25:04;99434.96;;;20.82;34.71
48718;BME280;34521;33.042;-96.586;2023-04-29T05:27:29;99436.19;;;20.65;34.82
48718;BME280;34521;33.042;-96.586;2023-04-29T05:29:54;99431.05;;;20.46;34.72
48718;BME280;34521;33.042;-96.586;2023-04-29T05:32:19;99425.75;;;20.34;34.86
48718;BME280;34521;33.042;-96.586;2023-04-29T05:34:44;99417.10;;;20.48;34.93
48718;BME280;34521;33.042;-96.586;2023-04-29T05:37:09;99408.75;;;20.45;34.86
48718;BME280;34521;33.042;-96.586;2023-04-29T05:39:34;99400.93;;;20.55;34.82
48718;BME280;34521;33.042;-96.586;2023-04-29T05:41:59;99391.11;;;20.24;34.83
48718;BME280;34521;33.042;-96.586;2023-04-29T05:44:24;99382.06;;;20.62;34.60
48718;BME280;34521;33.042;-96.586;2023-04-29T05:46:49;99380.15;;;20.17;35.16
48718;BME280;34521;33.042;-96.586;2023-04-29T05:49:14;99377.07;;;20.30;35.07
48718;BME280;34521;33.042;-96.586;2023-04-29T05:51:39;99372.02;;;20.45;34.70
48718;BME280;34521;33.042;-96.586;2023-04-29T05:54:04;99368.04;;;18.82;37.07
48718;BME280;34521;33.042;-96.586;2023-04-29T05:56:29;99369.20;;;19.25;37.35
48718;BME280;34521;33.042;-96.586;2023-04-29T05:58:54;99368.20;;;18.29;38.82
48718;BME280;34521;33.042;-96.586;2023-04-29T06:01:19;99362.73;;;18.08;39.54
48718;BME280;34521;33.042;-96.586;2023-04-29T06:03:44;99366.57;;;18.43;39.45
48718;BME280;34521;33.042;-96.586;2023-04-29T06:06:10;99365.95;;;19.16;37.74
48718;BME280;34521;33.042;-96.586;2023-04-29T06:08:35;99369.75;;;20.12;35.86
48718;BME280;34521;33.042;-96.586;2023-04-29T06:10:59;99366.67;;;20.22;35.67
48718;BME280;34521;33.042;-96.586;2023-04-29T06:13:25;99370.29;;;20.07;35.62
48718;BME280;34521;33.042;-96.586;2023-04-29T06:15:49;99377.16;;;19.84;35.60
48718;BME280;34521;33.042;-96.586;2023-04-29T06:18:15;99377.34;;;20.28;35.17
48718;BME280;34521;33.042;-96.586;2023-04-29T06:20:40;99374.33;;;20.03;35.10
48718;BME280;34521;33.042;-96.586;2023-04-29T06:23:05;99370.99;;;20.02;35.01
48718;BME280;34521;33.042;-96.586;2023-04-29T06:25:30;99377.33;;;20.26;35.28
48718;BME280;34521;33.042;-96.586;2023-04-29T06:27:56;99379.26;;;19.94;35.01
48718;BME280;34521;33.042;-96.586;2023-04-29T06:30:20;99377.11;;;20.31;34.77
48718;BME280;34521;33.042;-96.586;2023-04-29T06:32:45;99371.12;;;20.02;35.16
48718;BME280;34521;33.042;-96.586;2023-04-29T06:35:10;99373.02;;;20.16;34.65
48718;BME280;34521;33.042;-96.586;2023-04-29T06:37:35;99370.98;;;20.11;34.66
48718;BME280;34521;33.042;-96.586;2023-04-29T06:40:00;99366.92;;;19.88;34.92
48718;BME280;34521;33.042;-96.586;2023-04-29T06:42:25;99362.19;;;20.20;34.43
48718;BME280;34521;33.042;-96.586;2023-04-29T06:44:50;99359.00;;;20.14;34.49
48718;BME280;34521;33.042;-96.586;2023-04-29T06:47:15;99350.24;;;20.31;34.60
48718;BME280;34521;33.042;-96.586;2023-04-29T06:49:40;99354.51;;;19.96;34.70
48718;BME280;34521;33.042;-96.586;2023-04-29T06:52:05;99352.62;;;20.20;34.31
48718;BME280;34521;33.042;-96.586;2023-04-29T06:54:30;99352.20;;;18.32;37.71
48718;BME280;34521;33.042;-96.586;2023-04-29T06:56:56;99359.60;;;17.87;39.15
48718;BME280;34521;33.042;-96.586;2023-04-29T06:59:21;99359.19;;;18.04;39.62
48718;BME280;34521;33.042;-96.586;2023-04-29T07:01:46;99357.12;;;17.75;39.84
48718;BME280;34521;33.042;-96.586;2023-04-29T07:04:11;99357.91;;;17.52;39.82
48718;BME280;34521;33.042;-96.586;2023-04-29T07:06:36;99353.26;;;19.66;36.58
48718;BME280;34521;33.042;-96.586;2023-04-29T07:09:01;99354.14;;;19.70;35.75
48718;BME280;34521;33.042;-96.586;2023-04-29T07:11:27;99348.00;;;19.96;35.34
48718;BME280;34521;33.042;-96.586;2023-04-29T07:13:52;99352.70;;;20.01;34.97
48718;BME280;34521;33.042;-96.586;2023-04-29T07:16:17;99353.51;;;19.72;34.93
48718;BME280;34521;33.042;-96.586;2023-04-29T07:18:41;99348.34;;;19.96;34.86
48718;BME280;34521;33.042;-96.586;2023-04-29T07:21:06;99346.82;;;20.04;34.69
48718;BME280;34521;33.042;-96.586;2023-04-29T07:23:31;99340.51;;;19.91;34.52
48718;BME280;34521;33.042;-96.586;2023-04-29T07:25:56;99336.37;;;20.15;34.17
48718;BME280;34521;33.042;-96.586;2023-04-29T07:28:21;99336.48;;;20.16;34.11
48718;BME280;34521;33.042;-96.586;2023-04-29T07:30:46;99332.33;;;20.30;34.20
48718;BME280;34521;33.042;-96.586;2023-04-29T07:33:11;99333.27;;;20.41;33.78
48718;BME280;34521;33.042;-96.586;2023-04-29T07:35:36;99336.36;;;20.10;34.10
48718;BME280;34521;33.042;-96.586;2023-04-29T07:38:01;99342.57;;;20.02;34.13
48718;BME280;34521;33.042;-96.586;2023-04-29T07:40:27;99343.77;;;19.88;34.33
48718;BME280;34521;33.042;-96.586;2023-04-29T07:42:51;99341.25;;;20.17;34.24
48718;BME280;34521;33.042;-96.586;2023-04-29T07:45:17;99348.39;;;19.91;34.22
48718;BME280;34521;33.042;-96.586;2023-04-29T07:47:42;99343.89;;;19.76;34.39
48718;BME280;34521;33.042;-96.586;2023-04-29T07:50:08;99337.20;;;20.12;33.93
48718;BME280;34521;33.042;-96.586;2023-04-29T07:52:32;99341.67;;;18.27;37.43
48718;BME280;34521;33.042;-96.586;2023-04-29T07:54:57;99341.57;;;18.01;37.96
48718;BME280;34521;33.042;-96.586;2023-04-29T07:57:22;99349.59;;;18.01;38.76
48718;BME280;34521;33.042;-96.586;2023-04-29T07:59:51;99355.30;;;17.43;39.94
48718;BME280;34521;33.042;-96.586;2023-04-29T08:02:12;99354.07;;;17.53;39.53
48718;BME280;34521;33.042;-96.586;2023-04-29T08:04:39;99356.05;;;19.35;36.52
48718;BME280;34521;33.042;-96.586;2023-04-29T08:07:04;99357.40;;;19.96;35.26
48718;BME280;34521;33.042;-96.586;2023-04-29T08:09:27;99357.67;;;19.61;35.26
48718;BME280;34521;33.042;-96.586;2023-04-29T08:11:52;99361.39;;;19.97;34.77
48718;BME280;34521;33.042;-96.586;2023-04-29T08:14:17;99364.54;;;19.99;34.65
48718;BME280;34521;33.042;-96.586;2023-04-29T08:16:43;99362.22;;;19.83;34.52
48718;BME280;34521;33.042;-96.586;2023-04-29T08:19:08;99362.02;;;19.59;34.48
48718;BME280;34521;33.042;-96.586;2023-04-29T08:21:33;99357.10;;;19.86;34.36
48718;BME280;34521;33.042;-96.586;2023-04-29T08:23:57;99361.75;;;19.66;34.65
48718;BME280;34521;33.042;-96.586;2023-04-29T08:26:23;99366.94;;;19.92;33.95
48718;BME280;34521;33.042;-96.586;2023-04-29T08:28:48;99365.10;;;19.64;34.30
48718;BME280;34521;33.042;-96.586;2023-04-29T08:31:17;99368.09;;;19.70;34.19
48718;BME280;34521;33.042;-96.586;2023-04-29T08:33:38;99371.74;;;20.21;33.82
48718;BME280;34521;33.042;-96.586;2023-04-29T08:36:03;99381.22;;;20.03;33.74
48718;BME280;34521;33.042;-96.586;2023-04-29T08:38:28;99375.68;;;19.74;34.35
48718;BME280;34521;33.042;-96.586;2023-04-29T08:40:53;99384.67;;;20.28;34.01
48718;BME280;34521;33.042;-96.586;2023-04-29T08:43:19;99387.30;;;20.02;34.01
48718;BME280;34521;33.042;-96.586;2023-04-29T08:45:43;99387.98;;;20.01;34.01
48718;BME280;34521;33.042;-96.586;2023-04-29T08:48:08;99392.28;;;19.68;34.10
48718;BME280;34521;33.042;-96.586;2023-04-29T08:50:38;99394.99;;;19.35;35.12
48718;BME280;34521;33.042;-96.586;2023-04-29T08:52:58;99405.75;;;17.77;37.79
48718;BME280;34521;33.042;-96.586;2023-04-29T08:55:24;99402.88;;;17.82;38.45
48718;BME280;34521;33.042;-96.586;2023-04-29T08:57:49;99401.01;;;17.68;39.15
48718;BME280;34521;33.042;-96.586;2023-04-29T09:00:14;99391.45;;;17.20;39.87
48718;BME280;34521;33.042;-96.586;2023-04-29T09:02:43;99393.96;;;18.40;38.17
48718;BME280;34521;33.042;-96.586;2023-04-29T09:05:07;99390.70;;;19.67;35.57
48718;BME280;34521;33.042;-96.586;2023-04-29T09:07:31;99397.99;;;19.84;34.94
48718;BME280;34521;33.042;-96.586;2023-04-29T09:09:54;99393.62;;;19.77;34.89
48718;BME280;34521;33.042;-96.586;2023-04-29T09:12:19;99397.60;;;19.22;34.89
48718;BME280;34521;33.042;-96.586;2023-04-29T09:14:44;99401.26;;;19.63;34.67
48718;BME280;34521;33.042;-96.586;2023-04-29T09:17:09;99406.26;;;19.84;34.39
48718;BME280;34521;33.042;-96.586;2023-04-29T09:19:35;99412.19;;;19.63;34.30
48718;BME280;34521;33.042;-96.586;2023-04-29T09:21:59;99413.02;;;19.89;34.01
48718;BME280;34521;33.042;-96.586;2023-04-29T09:24:26;99415.52;;;19.78;33.77
48718;BME280;34521;33.042;-96.586;2023-04-29T09:26:49;99409.80;;;20.08;33.98
48718;BME280;34521;33.042;-96.586;2023-04-29T09:29:14;99412.69;;;19.65;34.19
48718;BME280;34521;33.042;-96.586;2023-04-29T09:31:40;99408.01;;;19.66;34.45
48718;BME280;34521;33.042;-96.586;2023-04-29T09:34:04;99409.91;;;19.54;33.99
48718;BME280;34521;33.042;-96.586;2023-04-29T09:36:35;99408.28;;;19.87;33.84
48718;BME280;34521;33.042;-96.586;2023-04-29T09:38:54;99411.90;;;19.84;33.56
48718;BME280;34521;33.042;-96.586;2023-04-29T09:41:20;99411.65;;;19.38;34.15
48718;BME280;34521;33.042;-96.586;2023-04-29T09:43:44;99414.96;;;19.88;33.79
48718;BME280;34521;33.042;-96.586;2023-04-29T09:46:12;99412.34;;;19.78;33.58
48718;BME280;34521;33.042;-96.586;2023-04-29T09:48:35;99410.07;;;19.97;33.35
48718;BME280;34521;33.042;-96.586;2023-04-29T09:51:00;99414.97;;;18.02;36.97
48718;BME280;34521;33.042;-96.586;2023-04-29T09:53:29;99418.79;;;17.47;38.14
48718;BME280;34521;33.042;-96.586;2023-04-29T09:55:58;99415.79;;;17.61;38.72
48718;BME280;34521;33.042;-96.586;2023-04-29T09:58:26;99410.18;;;17.23;39.35
48718;BME280;34521;33.042;-96.586;2023-04-29T10:00:45;99407.86;;;16.99;39.38
48718;BME280;34521;33.042;-96.586;2023-04-29T10:03:05;99405.48;;;18.77;36.03
48718;BME280;34521;33.042;-96.586;2023-04-29T10:05:30;99397.57;;;19.64;34.79
48718;BME280;34521;33.042;-96.586;2023-04-29T10:07:57;99398.43;;;19.45;34.62
48718;BME280;34521;33.042;-96.586;2023-04-29T10:10:21;99398.47;;;19.39;34.60
48718;BME280;34521;33.042;-96.586;2023-04-29T10:12:45;99399.28;;;19.34;34.34
48718;BME280;34521;33.042;-96.586;2023-04-29T10:15:17;99399.45;;;19.61;34.21
48718;BME280;34521;33.042;-96.586;2023-04-29T10:17:42;99406.51;;;19.68;33.83
48718;BME280;34521;33.042;-96.586;2023-04-29T10:20:03;99410.07;;;19.99;33.47
48718;BME280;34521;33.042;-96.586;2023-04-29T10:22:33;99419.60;;;20.20;33.38
48718;BME280;34521;33.042;-96.586;2023-04-29T10:24:51;99408.49;;;19.96;33.08
48718;BME280;34521;33.042;-96.586;2023-04-29T10:27:17;99403.43;;;20.37;33.14
48718;BME280;34521;33.042;-96.586;2023-04-29T10:29:41;99404.01;;;20.10;33.14
48718;BME280;34521;33.042;-96.586;2023-04-29T10:32:08;99407.37;;;19.91;33.36
48718;BME280;34521;33.042;-96.586;2023-04-29T10:34:32;99404.95;;;19.88;33.18
48718;BME280;34521;33.042;-96.586;2023-04-29T10:36:55;99406.64;;;19.73;33.34
48718;BME280;34521;33.042;-96.586;2023-04-29T10:39:29;99404.76;;;19.92;33.08
48718;BME280;34521;33.042;-96.586;2023-04-29T10:41:46;99401.22;;;20.40;32.76
48718;BME280;34521;33.042;-96.586;2023-04-29T10:44:11;99401.15;;;19.62;33.39
48718;BME280;34521;33.042;-96.586;2023-04-29T10:46:36;99406.39;;;19.58;33.42
48718;BME280;34521;33.042;-96.586;2023-04-29T10:49:02;99415.99;;;17.71;36.51
48718;BME280;34521;33.042;-96.586;2023-04-29T10:51:30;99415.63;;;17.56;37.57
48718;BME280;34521;33.042;-96.586;2023-04-29T10:54:01;99416.02;;;16.76;38.78
48718;BME280;34521;33.042;-96.586;2023-04-29T10:56:17;99417.89;;;16.95;39.24
48718;BME280;34521;33.042;-96.586;2023-04-29T10:58:43;99419.33;;;16.98;39.27
48718;BME280;34521;33.042;-96.586;2023-04-29T11:01:06;99421.50;;;18.72;36.11
48718;BME280;34521;33.042;-96.586;2023-04-29T11:03:45;99415.80;;;19.55;34.53
48718;BME280;34521;33.042;-96.586;2023-04-29T11:06:07;99419.12;;;19.75;33.85
48718;BME280;34521;33.042;-96.586;2023-04-29T11:08:23;99420.01;;;19.61;33.93
48718;BME280;34521;33.042;-96.586;2023-04-29T11:10:46;99423.48;;;20.01;33.68
48718;BME280;34521;33.042;-96.586;2023-04-29T11:13:22;99427.77;;;20.11;33.23
48718;BME280;34521;33.042;-96.586;2023-04-29T11:15:36;99429.38;;;20.09;32.92
48718;BME280;34521;33.042;-96.586;2023-04-29T11:18:02;99433.30;;;19.87;33.21
48718;BME280;34521;33.042;-96.586;2023-04-29T11:20:27;99431.29;;;19.31;33.56
48718;BME280;34521;33.042;-96.586;2023-04-29T11:22:52;99429.53;;;19.99;33.31
48718;BME280;34521;33.042;-96.586;2023-04-29T11:25:17;99436.37;;;19.86;33.18
48718;BME280;34521;33.042;-96.586;2023-04-29T11:27:41;99442.77;;;19.80;33.45
48718;BME280;34521;33.042;-96.586;2023-04-29T11:30:08;99445.30;;;20.04;33.19
48718;BME280;34521;33.042;-96.586;2023-04-29T11:32:33;99449.13;;;20.02;33.22
48718;BME280;34521;33.042;-96.586;2023-04-29T11:35:08;99449.54;;;19.55;33.47
48718;BME280;34521;33.042;-96.586;2023-04-29T11:37:23;99447.57;;;19.56;33.80
48718;BME280;34521;33.042;-96.586;2023-04-29T11:39:47;99452.09;;;19.46;33.62
48718;BME280;34521;33.042;-96.586;2023-04-29T11:42:12;99444.68;;;19.80;33.47
48718;BME280;34521;33.042;-96.586;2023-04-29T11:44:37;99450.65;;;19.61;33.35
48718;BME280;34521;33.042;-96.586;2023-04-29T11:47:03;99450.07;;;19.38;33.93
48718;BME280;34521;33.042;-96.586;2023-04-29T11:49:30;99455.88;;;16.92;38.06
48718;BME280;34521;33.042;-96.586;2023-04-29T11:51:52;99456.72;;;17.33;38.12
48718;BME280;34521;33.042;-96.586;2023-04-29T11:54:17;99461.44;;;16.62;39.44
48718;BME280;34521;33.042;-96.586;2023-04-29T11:56:42;99460.87;;;16.62;39.51
48718;BME280;34521;33.042;-96.586;2023-04-29T11:59:07;99460.56;;;17.65;38.08
48718;BME280;34521;33.042;-96.586;2023-04-29T12:01:32;99460.46;;;18.99;35.28
48718;BME280;34521;33.042;-96.586;2023-04-29T12:03:58;99460.10;;;19.48;34.29
48718;BME280;34521;33.042;-96.586;2023-04-29T12:06:28;99469.43;;;19.42;34.24
48718;BME280;34521;33.042;-96.586;2023-04-29T12:08:47;99461.80;;;19.10;34.28
48718;BME280;34521;33.042;-96.586;2023-04-29T12:11:12;99459.28;;;19.33;33.96
48718;BME280;34521;33.042;-96.586;2023-04-29T12:13:37;99458.26;;;19.74;33.72
48718;BME280;34521;33.042;-96.586;2023-04-29T12:16:04;99459.56;;;19.65;33.78
48718;BME280;34521;33.042;-96.586;2023-04-29T12:18:29;99458.59;;;19.78;33.36
48718;BME280;34521;33.042;-96.586;2023-04-29T12:20:53;99458.22;;;19.22;33.74
48718;BME280;34521;33.042;-96.586;2023-04-29T12:23:20;99461.85;;;19.44;33.76
48718;BME280;34521;33.042;-96.586;2023-04-29T12:25:48;99460.95;;;19.67;33.72
48718;BME280;34521;33.042;-96.586;2023-04-29T12:28:12;99460.45;;;19.46;33.70